Time;durP1;ratioP1;P1;durP2;ratioP2;P2;SDS_P1;SDS_P2;PMS_P1;PMS_P2;Temp;Humidity;BMP_temperature;BMP_pressure;BME280_temperature;BME280_humidity;BME280_pressure;Samples;Min_cycle;Max_cycle;Signal;HPM_P1;HPM_P2
2022/09/11 00:02:08;;;;;;;25.27;17.75;;;16.00;99.90;;;;;;5052727;28;20225;-51
2022/09/11 00:04:33;;;;;;;22.38;17.23;;;16.00;99.90;;;;;;5053853;28;20638;-51
2022/09/11 00:06:59;;;;;;;24.20;18.48;;;15.90;99.90;;;;;;5053758;28;20630;-51
2022/09/11 00:09:24;;;;;;;22.40;17.60;;;15.90;99.90;;;;;;5054284;28;20186;-51
2022/09/11 00:11:50;;;;;;;26.23;19.02;;;15.90;99.90;;;;;;5054142;28;20178;-51
2022/09/11 00:14:15;;;;;;;26.83;20.15;;;15.90;99.90;;;;;;5053747;28;20206;-52
2022/09/11 00:16:44;;;;;;;22.10;18.75;;;15.90;99.90;;;;;;5053325;28;20689;-51
2022/09/11 00:19:13;;;;;;;24.85;18.50;;;15.90;99.90;;;;;;5053901;28;20170;-52
2022/09/11 00:21:39;;;;;;;23.50;17.60;;;15.80;99.90;;;;;;5053252;28;20644;-52
2022/09/11 00:24:05;;;;;;;22.00;17.63;;;15.80;99.90;;;;;;5053512;28;20166;-52
2022/09/11 00:26:31;;;;;;;22.95;17.70;;;15.80;99.90;;;;;;5053579;28;20167;-52
2022/09/11 00:28:56;;;;;;;25.42;18.65;;;15.80;99.90;;;;;;5053829;28;20190;-52
2022/09/11 00:31:24;;;;;;;21.60;17.73;;;15.70;99.90;;;;;;5053528;28;20163;-52
2022/09/11 00:33:50;;;;;;;24.60;17.73;;;15.70;99.90;;;;;;5053357;28;20649;-52
2022/09/11 00:36:22;;;;;;;27.05;18.73;;;15.70;99.90;;;;;;5053633;28;20167;-52
2022/09/11 00:38:49;;;;;;;28.13;18.63;;;15.70;99.90;;;;;;5053301;28;20166;-52
2022/09/11 00:41:30;;;;;;;24.27;18.85;;;15.70;99.90;;;;;;5051998;28;20177;-52
2022/09/11 00:44:02;;;;;;;27.73;18.83;;;15.70;99.90;;;;;;5053835;28;20185;-52
2022/09/11 00:46:39;;;;;;;24.17;18.20;;;15.70;99.90;;;;;;5052636;28;20510;-52
2022/09/11 00:49:31;;;;;;;23.13;18.58;;;15.60;99.90;;;;;;5053107;28;20219;-51
2022/09/11 00:52:19;;;;;;;24.83;18.08;;;15.50;99.90;;;;;;5053534;28;20624;-52
2022/09/11 00:54:55;;;;;;;24.20;19.05;;;15.60;99.90;;;;;;5052976;28;20244;-52
2022/09/11 00:57:23;;;;;;;24.15;19.85;;;15.50;99.90;;;;;;5052986;28;20219;-53
2022/09/11 00:59:53;;;;;;;24.98;19.10;;;15.60;99.90;;;;;;5052936;28;20186;-52
2022/09/11 01:02:21;;;;;;;26.75;20.25;;;15.50;99.90;;;;;;5052831;28;20220;-51
2022/09/11 01:04:46;;;;;;;27.80;18.75;;;15.50;99.90;;;;;;5052831;28;20244;-52
2022/09/11 01:07:14;;;;;;;22.35;18.58;;;15.50;99.90;;;;;;5052759;28;20178;-52
2022/09/11 01:09:40;;;;;;;25.65;19.98;;;15.50;99.90;;;;;;5052969;28;20181;-51
2022/09/11 01:12:30;;;;;;;26.55;20.52;;;15.40;99.90;;;;;;5052700;28;20166;-53
2022/09/11 01:15:07;;;;;;;26.52;19.63;;;15.50;99.90;;;;;;5051465;28;20202;-53
2022/09/11 01:17:50;;;;;;;31.35;20.30;;;15.50;99.90;;;;;;5052560;28;20177;-52
2022/09/11 01:20:22;;;;;;;28.30;19.73;;;15.50;99.90;;;;;;5052545;28;20163;-53
2022/09/11 01:23:16;;;;;;;30.70;21.88;;;15.50;99.90;;;;;;5052744;28;20549;-52
2022/09/11 01:26:22;;;;;;;24.70;19.73;;;15.40;99.90;;;;;;5052471;28;20517;-52
2022/09/11 01:29:19;;;;;;;28.15;19.77;;;15.50;99.90;;;;;;5051047;28;20177;-52
2022/09/11 01:32:27;;;;;;;30.27;22.05;;;15.40;99.90;;;;;;5052296;28;20166;-52
2022/09/11 01:35:00;;;;;;;29.30;20.25;;;15.50;99.90;;;;;;5051232;28;20263;-52
2022/09/11 01:37:37;;;;;;;27.08;19.63;;;15.40;99.90;;;;;;5052755;28;20541;-53
2022/09/11 01:40:12;;;;;;;27.02;20.45;;;15.40;99.90;;;;;;5052185;28;20171;-52
2022/09/11 01:42:42;;;;;;;29.23;21.30;;;15.40;99.90;;;;;;5052375;28;20200;-51
2022/09/11 01:45:09;;;;;;;30.05;22.13;;;15.40;99.90;;;;;;5052391;28;20232;-51
2022/09/11 01:47:36;;;;;;;27.80;20.98;;;15.40;99.90;;;;;;5052301;28;20190;-51
2022/09/11 01:50:09;;;;;;;27.70;21.25;;;15.50;99.90;;;;;;5052000;28;20622;-52
2022/09/11 01:52:42;;;;;;;29.58;19.88;;;15.40;99.90;;;;;;5052035;28;20219;-52
2022/09/11 01:55:12;;;;;;;29.83;20.95;;;15.40;99.90;;;;;;5051940;28;20198;-52
2022/09/11 01:58:02;;;;;;;28.50;21.17;;;15.50;99.90;;;;;;5051994;28;20162;-52
2022/09/11 02:00:30;;;;;;;30.85;22.02;;;15.50;99.90;;;;;;5052235;28;20170;-52
2022/09/11 02:03:07;;;;;;;28.90;21.80;;;15.40;99.90;;;;;;5052244;28;20163;-52
2022/09/11 02:05:42;;;;;;;30.15;20.48;;;15.50;99.90;;;;;;5051844;28;20166;-52
2022/09/11 02:08:18;;;;;;;28.58;21.75;;;15.40;99.90;;;;;;5051788;28;20173;-52
2022/09/11 02:10:49;;;;;;;30.88;22.08;;;15.50;99.90;;;;;;5051715;28;20656;-52
2022/09/11 02:13:38;;;;;;;30.73;22.77;;;15.50;99.90;;;;;;5051964;28;20178;-52
2022/09/11 02:16:12;;;;;;;31.70;24.35;;;15.50;99.90;;;;;;5040985;28;20210;-52
2022/09/11 02:18:47;;;;;;;31.02;23.90;;;15.50;99.90;;;;;;5051705;28;20194;-52
2022/09/11 02:21:12;;;;;;;34.40;23.92;;;15.60;99.90;;;;;;5051651;28;20561;-52
2022/09/11 02:23:38;;;;;;;37.22;25.92;;;15.60;99.90;;;;;;5050407;28;20175;-51
2022/09/11 02:26:06;;;;;;;36.08;26.55;;;15.60;99.90;;;;;;5051914;28;20223;-52
2022/09/11 02:28:32;;;;;;;37.05;26.10;;;15.70;99.90;;;;;;5051623;28;20197;-52
2022/09/11 02:30:58;;;;;;;32.58;24.77;;;15.60;99.90;;;;;;5051701;28;20221;-51
2022/09/11 02:33:32;;;;;;;35.42;26.65;;;15.60;99.90;;;;;;5051764;28;20224;-52
2022/09/11 02:36:06;;;;;;;36.90;27.42;;;15.60;99.90;;;;;;5051875;28;20191;-52
2022/09/11 02:38:45;;;;;;;42.35;27.90;;;15.70;99.90;;;;;;5051739;28;20173;-52
2022/09/11 02:41:25;;;;;;;38.85;28.77;;;15.70;99.90;;;;;;5053629;28;20309;-52
2022/09/11 02:44:15;;;;;;;44.63;28.10;;;15.60;99.90;;;;;;5055450;28;20163;-51
2022/09/11 02:47:04;;;;;;;42.15;29.58;;;15.70;99.90;;;;;;5055384;28;20692;-51
2022/09/11 02:49:38;;;;;;;43.55;28.30;;;15.70;99.90;;;;;;5055357;28;20173;-51
2022/09/11 02:52:17;;;;;;;41.63;28.83;;;15.70;99.90;;;;;;5055460;28;20162;-51
2022/09/11 02:55:00;;;;;;;45.90;31.17;;;15.70;99.90;;;;;;5055427;28;20217;-51
2022/09/11 02:57:45;;;;;;;49.53;32.67;;;15.70;99.90;;;;;;5055753;28;20171;-52
2022/09/11 03:00:12;;;;;;;45.22;31.23;;;15.80;99.90;;;;;;5055252;28;20170;-51
2022/09/11 03:02:40;;;;;;;47.10;30.10;;;15.80;99.90;;;;;;5055110;28;20318;-51
2022/09/11 03:05:07;;;;;;;51.08;30.48;;;15.70;99.90;;;;;;5055082;28;20641;-53
2022/09/11 03:07:33;;;;;;;45.92;29.70;;;15.70;99.90;;;;;;5055069;28;20646;-51
2022/09/11 03:09:59;;;;;;;48.78;29.83;;;15.70;99.90;;;;;;5054972;28;20179;-51
2022/09/11 03:12:26;;;;;;;45.50;28.98;;;15.80;99.90;;;;;;5055332;28;20174;-51
2022/09/11 03:14:51;;;;;;;49.05;29.58;;;15.70;99.90;;;;;;5055100;28;20210;-51
2022/09/11 03:17:18;;;;;;;44.60;29.83;;;15.60;99.90;;;;;;5054800;28;21223;-51
2022/09/11 03:19:44;;;;;;;41.45;28.52;;;15.70;99.90;;;;;;5055122;28;20174;-51
2022/09/11 03:22:10;;;;;;;49.67;31.20;;;15.70;99.90;;;;;;5054998;28;20177;-51
2022/09/11 03:24:36;;;;;;;44.80;30.00;;;15.70;99.90;;;;;;5054813;28;20626;-51
2022/09/11 03:27:01;;;;;;;45.15;29.25;;;15.70;99.90;;;;;;5054676;28;20171;-51
2022/09/11 03:29:27;;;;;;;43.28;29.08;;;15.70;99.90;;;;;;5055015;28;20163;-52
2022/09/11 03:31:52;;;;;;;53.05;30.40;;;15.70;99.90;;;;;;5054865;28;20163;-51
2022/09/11 03:34:18;;;;;;;48.38;31.58;;;15.70;99.90;;;;;;5054503;28;20241;-52
2022/09/11 03:36:45;;;;;;;48.90;32.63;;;15.70;99.90;;;;;;5054775;28;20232;-52
2022/09/11 03:39:10;;;;;;;49.88;30.73;;;15.70;99.90;;;;;;5054373;28;20205;-52
2022/09/11 03:41:36;;;;;;;50.03;32.42;;;15.70;99.90;;;;;;5054370;28;20175;-51
2022/09/11 03:44:02;;;;;;;53.60;31.63;;;15.70;99.90;;;;;;5054351;28;20198;-51
2022/09/11 03:46:27;;;;;;;51.33;30.77;;;15.60;99.90;;;;;;5054363;28;20208;-50
2022/09/11 03:48:53;;;;;;;53.03;31.20;;;15.70;99.90;;;;;;5054636;28;20626;-52
2022/09/11 03:51:19;;;;;;;55.55;32.78;;;15.70;99.90;;;;;;5053700;28;20309;-52
2022/09/11 03:53:45;;;;;;;59.53;33.40;;;15.70;99.90;;;;;;5054041;28;20241;-51
2022/09/11 03:56:11;;;;;;;49.78;31.50;;;15.70;99.90;;;;;;5054316;28;20194;-51
2022/09/11 03:58:37;;;;;;;53.28;31.67;;;15.70;99.90;;;;;;5054302;28;20171;-53
2022/09/11 04:01:13;;;;;;;54.45;33.33;;;15.70;99.90;;;;;;5054080;28;20232;-52
2022/09/11 04:03:40;;;;;;;52.65;31.67;;;15.70;99.90;;;;;;5054058;28;20174;-53
2022/09/11 04:06:06;;;;;;;67.88;36.17;;;15.70;99.90;;;;;;5054229;28;20290;-52
2022/09/11 04:08:32;;;;;;;52.72;31.60;;;15.60;99.90;;;;;;5054163;28;20175;-51
2022/09/11 04:11:03;;;;;;;59.67;35.83;;;15.70;99.90;;;;;;5054080;28;20541;-52
2022/09/11 04:13:31;;;;;;;59.92;33.40;;;15.70;99.90;;;;;;5053945;28;20178;-51
2022/09/11 04:15:59;;;;;;;63.28;36.35;;;15.80;99.90;;;;;;5053851;28;20215;-51
2022/09/11 04:18:25;;;;;;;54.70;33.88;;;15.80;99.90;;;;;;5054330;28;20240;-52
2022/09/11 04:20:50;;;;;;;59.70;32.53;;;15.70;99.90;;;;;;5053883;28;20638;-52
2022/09/11 04:23:16;;;;;;;54.50;33.45;;;15.70;99.90;;;;;;5053914;28;20515;-52
2022/09/11 04:25:41;;;;;;;59.63;34.22;;;15.70;99.90;;;;;;5053627;28;20174;-52
2022/09/11 04:28:07;;;;;;;57.38;33.45;;;15.80;99.90;;;;;;5053613;28;20170;-52
2022/09/11 04:30:37;;;;;;;58.85;33.40;;;15.70;99.90;;;;;;5053782;28;20246;-52
2022/09/11 04:33:04;;;;;;;55.08;32.15;;;15.70;99.90;;;;;;5053506;28;20159;-52
2022/09/11 04:35:30;;;;;;;64.43;35.30;;;15.70;99.90;;;;;;5053626;28;20214;-52
2022/09/11 04:37:56;;;;;;;63.50;34.17;;;15.70;99.90;;;;;;5052445;28;20167;-52
2022/09/11 04:40:22;;;;;;;60.33;34.42;;;15.70;99.90;;;;;;5053638;28;20261;-51
2022/09/11 04:42:47;;;;;;;60.63;34.75;;;15.70;99.90;;;;;;5053217;28;20532;-51
2022/09/11 04:45:13;;;;;;;55.47;31.13;;;15.70;99.90;;;;;;5053183;28;20510;-52
2022/09/11 04:47:39;;;;;;;60.30;34.42;;;15.70;99.90;;;;;;5053209;28;20718;-52
2022/09/11 04:50:06;;;;;;;55.75;33.75;;;15.70;99.90;;;;;;5053374;28;20174;-51
2022/09/11 04:52:33;;;;;;;59.35;31.50;;;15.70;99.90;;;;;;5053099;28;20171;-51
2022/09/11 04:54:58;;;;;;;56.88;33.50;;;15.70;99.90;;;;;;5051631;28;20912;-51
2022/09/11 04:57:24;;;;;;;55.28;32.60;;;15.70;99.90;;;;;;5052119;28;20206;-52
2022/09/11 04:59:51;;;;;;;59.10;34.40;;;15.60;99.90;;;;;;5052893;28;20252;-52
2022/09/11 05:02:17;;;;;;;66.78;32.88;;;15.70;99.90;;;;;;5052607;28;20166;-51
2022/09/11 05:04:42;;;;;;;55.53;32.47;;;15.70;99.90;;;;;;5052169;28;20174;-52
2022/09/11 05:07:08;;;;;;;54.03;32.40;;;15.70;99.90;;;;;;5052807;28;20167;-51
2022/09/11 05:09:33;;;;;;;64.05;34.13;;;15.70;99.90;;;;;;5052767;28;20166;-52
2022/09/11 05:12:00;;;;;;;58.00;33.78;;;15.70;99.90;;;;;;5052722;28;20189;-52
2022/09/11 05:14:27;;;;;;;56.90;32.10;;;15.70;99.90;;;;;;5052547;28;20241;-49
2022/09/11 05:16:53;;;;;;;51.80;31.20;;;15.70;99.90;;;;;;5052816;28;20215;-51
2022/09/11 05:19:20;;;;;;;60.28;31.80;;;15.70;99.90;;;;;;5052578;28;20709;-52
2022/09/11 05:21:45;;;;;;;76.50;35.53;;;15.80;99.90;;;;;;5051356;28;20174;-52
2022/09/11 05:24:11;;;;;;;71.93;34.03;;;15.70;99.90;;;;;;5052534;28;20536;-51
2022/09/11 05:26:37;;;;;;;82.13;31.52;;;15.80;99.90;;;;;;5052785;28;20201;-52
2022/09/11 05:29:13;;;;;;;72.53;36.80;;;15.70;99.90;;;;;;5052416;28;20167;-51
2022/09/11 05:31:39;;;;;;;69.43;32.30;;;15.80;99.90;;;;;;5052556;28;20170;-51
2022/09/11 05:34:05;;;;;;;79.50;30.55;;;15.70;99.90;;;;;;5050848;28;20696;-52
2022/09/11 05:36:33;;;;;;;72.57;30.85;;;15.70;99.90;;;;;;5052288;28;20258;-51
2022/09/11 05:38:58;;;;;;;89.50;32.88;;;15.70;99.90;;;;;;5052158;28;20177;-51
2022/09/11 05:41:24;;;;;;;86.75;31.42;;;15.70;99.90;;;;;;5052453;28;20166;-52
2022/09/11 05:43:50;;;;;;;88.85;30.23;;;15.70;99.90;;;;;;5052039;28;20562;-52
2022/09/11 05:46:17;;;;;;;77.70;30.15;;;15.60;99.90;;;;;;5052070;28;20265;-51
2022/09/11 05:48:43;;;;;;;89.97;29.13;;;15.60;99.90;;;;;;5052044;28;20216;-51
2022/09/11 05:51:11;;;;;;;77.38;27.92;;;15.70;99.90;;;;;;5050636;28;20180;-52
2022/09/11 05:53:37;;;;;;;88.35;29.23;;;15.70;99.90;;;;;;5052099;28;20225;-52
2022/09/11 05:56:06;;;;;;;90.50;28.80;;;15.80;99.90;;;;;;5051921;28;20177;-51
2022/09/11 05:58:32;;;;;;;76.93;30.52;;;15.70;99.90;;;;;;5051834;28;20523;-51
2022/09/11 06:01:12;;;;;;;71.60;28.88;;;15.70;99.90;;;;;;5051877;28;20175;-50
2022/09/11 06:03:39;;;;;;;69.70;27.92;;;15.70;99.90;;;;;;5051849;28;20163;-50
2022/09/11 06:06:07;;;;;;;55.22;27.42;;;15.80;99.90;;;;;;5051999;28;20197;-50
2022/09/11 06:08:34;;;;;;;76.60;30.88;;;15.70;99.90;;;;;;5051772;28;20202;-51
2022/09/11 06:11:01;;;;;;;52.55;26.67;;;15.80;99.90;;;;;;5051741;28;20252;-50
2022/09/11 06:13:32;;;;;;;50.30;27.73;;;15.70;99.90;;;;;;5051703;28;20198;-51
2022/09/11 06:15:58;;;;;;;43.00;25.13;;;15.80;99.90;;;;;;5049970;28;20682;-50
2022/09/11 06:18:24;;;;;;;46.78;24.85;;;15.70;99.90;;;;;;5052050;28;20163;-51
2022/09/11 06:20:57;;;;;;;50.13;26.00;;;15.80;99.90;;;;;;5051718;28;20257;-50
2022/09/11 06:23:23;;;;;;;57.25;27.42;;;15.80;99.90;;;;;;5050725;28;20655;-51
2022/09/11 06:25:49;;;;;;;61.00;29.33;;;15.90;99.90;;;;;;5051570;28;20301;-51
2022/09/11 06:28:15;;;;;;;63.42;29.35;;;15.90;99.90;;;;;;5051468;28;20238;-51
2022/09/11 06:30:40;;;;;;;78.68;31.13;;;15.90;99.90;;;;;;5051763;28;20257;-51
2022/09/11 06:33:06;;;;;;;58.90;30.05;;;16.00;99.90;;;;;;5051525;28;20531;-50
2022/09/11 06:35:32;;;;;;;71.32;28.10;;;15.90;99.90;;;;;;5051370;28;20203;-50
2022/09/11 06:37:57;;;;;;;52.15;28.63;;;15.90;99.90;;;;;;5051752;28;20170;-51
2022/09/11 06:40:23;;;;;;;53.63;29.35;;;15.80;99.90;;;;;;5051834;28;20167;-50
2022/09/11 06:42:50;;;;;;;60.83;27.58;;;15.90;99.90;;;;;;5051727;28;20173;-50
2022/09/11 06:45:16;;;;;;;60.58;28.05;;;15.80;99.90;;;;;;5051627;28;20232;-50
2022/09/11 06:47:43;;;;;;;49.45;27.15;;;15.90;99.90;;;;;;5051407;28;20167;-51
2022/09/11 06:50:09;;;;;;;52.17;30.92;;;15.80;99.90;;;;;;5051297;28;20179;-51
2022/09/11 06:52:35;;;;;;;37.80;25.23;;;15.90;99.90;;;;;;5051234;28;20177;-51
2022/09/11 06:55:01;;;;;;;43.58;25.05;;;15.90;99.90;;;;;;5051449;28;20306;-50
2022/09/11 06:57:27;;;;;;;43.63;25.33;;;16.00;99.90;;;;;;5051227;28;20254;-51
2022/09/11 06:59:52;;;;;;;49.25;27.48;;;16.00;99.90;;;;;;5051614;28;20174;-51
2022/09/11 07:02:18;;;;;;;45.78;26.92;;;16.10;99.90;;;;;;5051223;28;20167;-50
2022/09/11 07:04:45;;;;;;;40.45;26.33;;;16.10;99.90;;;;;;5051121;28;20228;-50
2022/09/11 07:07:11;;;;;;;44.22;24.42;;;16.00;99.90;;;;;;5051099;28;20167;-51
2022/09/11 07:09:36;;;;;;;45.70;25.77;;;16.00;99.90;;;;;;5051077;28;20175;-50
2022/09/11 07:12:02;;;;;;;42.33;24.73;;;15.80;99.90;;;;;;5050845;28;20216;-51
2022/09/11 07:14:28;;;;;;;47.63;25.80;;;15.90;99.90;;;;;;5051027;28;20238;-51
2022/09/11 07:16:54;;;;;;;43.13;25.70;;;15.90;99.90;;;;;;5051282;28;20218;-51
2022/09/11 07:19:21;;;;;;;41.05;23.88;;;16.00;99.90;;;;;;5051134;28;20170;-51
2022/09/11 07:21:46;;;;;;;33.50;22.88;;;16.00;99.90;;;;;;5051017;28;20315;-51
2022/09/11 07:24:12;;;;;;;38.08;25.02;;;16.10;99.90;;;;;;5051008;28;20254;-50
2022/09/11 07:26:37;;;;;;;37.80;23.00;;;16.10;99.90;;;;;;5052273;28;20178;-51
2022/09/11 07:29:03;;;;;;;38.65;24.83;;;16.10;99.90;;;;;;5052921;28;20665;-50
2022/09/11 07:31:31;;;;;;;38.95;23.90;;;16.10;99.90;;;;;;5054440;28;20182;-50
2022/09/11 07:33:58;;;;;;;41.08;25.45;;;16.10;99.90;;;;;;5054488;28;20203;-50
2022/09/11 07:36:26;;;;;;;39.28;24.42;;;16.30;99.90;;;;;;5054779;28;20268;-51
2022/09/11 07:38:53;;;;;;;40.88;25.35;;;16.20;99.90;;;;;;5054745;28;20159;-51
2022/09/11 07:41:21;;;;;;;39.47;25.70;;;16.20;99.90;;;;;;5054284;28;20173;-51
2022/09/11 07:43:51;;;;;;;46.38;27.05;;;16.30;99.90;;;;;;5054624;28;20194;-51
2022/09/11 07:46:17;;;;;;;42.85;26.98;;;16.30;99.90;;;;;;5054300;28;20173;-51
2022/09/11 07:48:42;;;;;;;41.83;26.70;;;16.50;99.90;;;;;;5053912;28;20261;-51
2022/09/11 07:51:10;;;;;;;40.97;27.33;;;16.40;99.90;;;;;;5054043;28;20159;-51
2022/09/11 07:53:48;;;;;;;44.80;28.48;;;16.40;99.90;;;;;;5053747;28;20526;-50
2022/09/11 07:56:17;;;;;;;39.28;25.67;;;16.40;99.90;;;;;;5053945;28;20166;-50
2022/09/11 07:58:43;;;;;;;38.33;26.20;;;16.40;99.90;;;;;;5054316;28;20193;-51
2022/09/11 08:01:17;;;;;;;40.47;26.05;;;16.30;99.90;;;;;;5054027;28;20627;-49
2022/09/11 08:03:43;;;;;;;37.30;26.42;;;16.20;99.90;;;;;;5053989;28;20215;-51
2022/09/11 08:06:12;;;;;;;44.17;27.23;;;16.30;99.90;;;;;;5053900;28;20174;-51
2022/09/11 08:08:38;;;;;;;39.78;26.58;;;16.40;99.90;;;;;;5054047;28;20254;-51
2022/09/11 08:11:10;;;;;;;42.45;26.40;;;16.30;99.90;;;;;;5053867;28;20166;-52
2022/09/11 08:13:36;;;;;;;41.85;28.42;;;16.50;99.90;;;;;;5053970;28;20534;-51
2022/09/11 08:16:02;;;;;;;43.90;27.55;;;16.60;99.90;;;;;;5053504;28;20221;-51
2022/09/11 08:18:28;;;;;;;42.00;25.42;;;16.60;99.90;;;;;;5053690;28;20285;-51
2022/09/11 08:21:01;;;;;;;38.42;27.35;;;16.60;99.90;;;;;;5053574;28;20213;-51
2022/09/11 08:23:27;;;;;;;35.38;25.33;;;16.60;99.90;;;;;;5053411;28;20538;-51
2022/09/11 08:25:53;;;;;;;37.97;26.20;;;16.60;99.90;;;;;;5053459;28;20178;-51
2022/09/11 08:28:18;;;;;;;34.03;24.45;;;16.80;99.90;;;;;;5053409;28;20212;-49
2022/09/11 08:30:44;;;;;;;32.53;24.30;;;17.00;99.90;;;;;;5053529;28;20246;-49
2022/09/11 08:33:11;;;;;;;33.85;23.45;;;17.10;99.90;;;;;;5053297;28;20253;-49
2022/09/11 08:35:37;;;;;;;32.38;23.58;;;17.00;99.90;;;;;;5052738;28;20260;-48
2022/09/11 08:38:02;;;;;;;37.33;24.63;;;16.90;99.90;;;;;;5053487;28;20159;-49
2022/09/11 08:40:37;;;;;;;42.28;27.60;;;16.90;99.90;;;;;;5052426;28;20232;-50
2022/09/11 08:43:03;;;;;;;38.25;27.00;;;16.90;99.90;;;;;;5053431;28;20248;-49
2022/09/11 08:45:33;;;;;;;35.28;25.90;;;16.90;99.90;;;;;;5053182;28;20630;-49
2022/09/11 08:48:00;;;;;;;37.20;25.85;;;17.00;99.90;;;;;;5053072;28;20171;-49
2022/09/11 08:50:34;;;;;;;40.35;25.10;;;17.00;99.90;;;;;;5053098;28;20253;-48
2022/09/11 08:53:01;;;;;;;33.72;24.42;;;17.00;99.90;;;;;;5052887;28;20507;-49
2022/09/11 08:55:38;;;;;;;37.70;24.80;;;17.10;99.90;;;;;;5052573;28;20202;-49
2022/09/11 08:58:04;;;;;;;33.03;24.50;;;17.20;99.90;;;;;;5051838;28;20170;-50
2022/09/11 09:00:38;;;;;;;37.13;25.88;;;17.20;99.90;;;;;;5052821;28;20166;-49
2022/09/11 09:03:29;;;;;;;42.67;26.67;;;17.30;99.90;;;;;;5052814;28;20660;-49
2022/09/11 09:06:05;;;;;;;38.50;26.67;;;17.20;99.90;;;;;;5053403;28;20177;-50
2022/09/11 09:08:48;;;;;;;36.30;26.25;;;17.20;99.90;;;;;;5052552;28;20162;-49
2022/09/11 09:11:29;;;;;;;35.78;25.52;;;17.20;99.90;;;;;;5052667;28;20167;-50
2022/09/11 09:14:05;;;;;;;36.35;25.20;;;17.30;99.90;;;;;;5052909;28;20199;-49
2022/09/11 09:16:46;;;;;;;39.88;27.02;;;17.20;99.90;;;;;;5052498;28;20222;-50
2022/09/11 09:19:46;;;;;;;36.65;25.58;;;17.20;99.90;;;;;;5052494;28;20634;-49
2022/09/11 09:22:18;;;;;;;38.67;26.35;;;17.30;99.90;;;;;;5052367;28;20166;-49
2022/09/11 09:24:58;;;;;;;35.22;24.92;;;17.50;99.90;;;;;;5052381;28;20163;-48
2022/09/11 09:27:32;;;;;;;39.33;26.30;;;17.40;99.90;;;;;;5052609;28;20174;-49
2022/09/11 09:30:02;;;;;;;39.08;26.45;;;17.40;99.90;;;;;;5052375;28;20163;-49
2022/09/11 09:32:40;;;;;;;33.70;24.42;;;17.40;99.90;;;;;;5052166;28;20646;-48
2022/09/11 09:35:34;;;;;;;34.47;24.40;;;17.40;99.90;;;;;;5052477;28;20529;-50
2022/09/11 09:38:00;;;;;;;35.25;24.83;;;17.40;99.90;;;;;;5049139;28;20183;-49
2022/09/11 09:40:28;;;;;;;35.40;24.33;;;17.50;99.90;;;;;;5052274;28;20653;-49
2022/09/11 09:43:05;;;;;;;46.25;27.95;;;17.50;99.90;;;;;;5052672;28;20174;-49
2022/09/11 09:45:55;;;;;;;37.53;26.25;;;17.60;99.90;;;;;;5052161;28;20171;-49
2022/09/11 09:48:21;;;;;;;33.67;24.23;;;17.70;99.90;;;;;;5049132;28;20292;-48
2022/09/11 09:50:48;;;;;;;33.58;25.45;;;18.00;99.90;;;;;;5045997;28;20193;-47
2022/09/11 09:53:27;;;;;;;39.17;27.65;;;18.40;99.90;;;;;;5050617;28;20228;-48
2022/09/11 09:55:55;;;;;;;38.28;26.95;;;18.50;99.90;;;;;;5052215;28;20225;-48
2022/09/11 09:58:25;;;;;;;33.45;24.85;;;18.60;99.90;;;;;;5052424;28;20219;-48
2022/09/11 10:00:51;;;;;;;37.22;28.58;;;18.90;99.90;;;;;;5052192;28;20162;-47
2022/09/11 10:03:19;;;;;;;42.33;28.67;;;19.00;99.90;;;;;;5051580;28;20167;-49
2022/09/11 10:05:47;;;;;;;50.08;32.13;;;19.20;99.90;;;;;;5051429;28;20594;-49
2022/09/11 10:08:26;;;;;;;47.50;31.88;;;19.30;99.90;;;;;;5050589;28;20537;-50
2022/09/11 10:11:00;;;;;;;43.53;30.95;;;19.30;99.90;;;;;;5051711;28;20177;-49
2022/09/11 10:13:31;;;;;;;47.85;31.27;;;19.30;99.90;;;;;;5051522;28;20248;-49
2022/09/11 10:16:02;;;;;;;36.35;27.02;;;19.60;99.90;;;;;;5051598;28;20241;-50
2022/09/11 10:18:28;;;;;;;37.55;27.38;;;19.60;99.90;;;;;;5048318;28;20187;-48
2022/09/11 10:21:14;;;;;;;33.22;25.35;;;19.70;99.90;;;;;;5052359;28;20166;-49
2022/09/11 10:23:50;;;;;;;32.10;25.05;;;19.90;99.90;;;;;;5051554;28;20169;-51
2022/09/11 10:26:32;;;;;;;35.03;25.23;;;19.80;99.90;;;;;;5050284;28;20174;-49
2022/09/11 10:29:08;;;;;;;30.55;23.98;;;20.00;99.90;;;;;;5044551;28;20167;-48
2022/09/11 10:31:38;;;;;;;27.02;22.38;;;20.10;99.90;;;;;;5030148;28;20185;-49
2022/09/11 10:34:05;;;;;;;27.90;23.15;;;20.00;99.90;;;;;;5031545;28;20191;-50
2022/09/11 10:36:31;;;;;;;24.85;21.17;;;19.90;99.90;;;;;;5031340;28;20286;-51
2022/09/11 10:38:59;;;;;;;28.75;20.50;;;20.10;99.90;;;;;;5031430;28;20546;-50
2022/09/11 10:41:33;;;;;;;26.38;21.85;;;19.90;99.90;;;;;;5031749;28;20194;-48
2022/09/11 10:44:14;;;;;;;27.27;21.58;;;19.80;99.90;;;;;;5031379;28;20230;-50
2022/09/11 10:46:42;;;;;;;23.98;19.25;;;20.00;99.90;;;;;;5031100;28;20640;-49
2022/09/11 10:49:16;;;;;;;25.80;20.15;;;19.90;99.90;;;;;;5031375;28;20184;-49
2022/09/11 10:51:56;;;;;;;26.00;19.58;;;20.30;99.90;;;;;;5031505;28;20167;-50
2022/09/11 10:54:40;;;;;;;18.65;15.75;;;20.40;99.90;;;;;;5031575;28;20285;-49
2022/09/11 10:57:23;;;;;;;20.45;15.90;;;20.60;99.90;;;;;;5031046;28;20647;-49
2022/09/11 11:00:13;;;;;;;18.98;16.80;;;20.70;99.90;;;;;;5031353;28;20611;-49
2022/09/11 11:02:48;;;;;;;18.05;15.23;;;20.60;99.90;;;;;;5034323;28;20168;-49
2022/09/11 11:05:32;;;;;;;17.98;15.52;;;20.50;99.90;;;;;;5035113;28;20637;-49
2022/09/11 11:08:11;;;;;;;17.55;15.63;;;20.60;99.90;;;;;;5035014;28;20591;-50
2022/09/11 11:10:36;;;;;;;19.20;16.48;;;20.70;99.90;;;;;;5034972;28;20654;-49
2022/09/11 11:13:19;;;;;;;15.80;13.35;;;20.50;99.90;;;;;;5034957;28;20195;-49
2022/09/11 11:16:04;;;;;;;15.70;13.55;;;20.50;99.90;;;;;;5033637;28;20307;-49
2022/09/11 11:18:59;;;;;;;16.95;14.13;;;20.60;99.90;;;;;;5034808;28;20229;-49
2022/09/11 11:21:36;;;;;;;20.00;16.52;;;20.60;99.90;;;;;;5034907;28;20159;-48
2022/09/11 11:24:20;;;;;;;18.40;15.80;;;20.50;99.90;;;;;;5034879;28;20194;-50
2022/09/11 11:27:20;;;;;;;13.55;12.10;;;20.30;99.90;;;;;;5033653;28;20250;-49
2022/09/11 11:30:02;;;;;;;13.50;11.13;;;20.30;99.90;;;;;;5035040;28;20639;-49
2022/09/11 11:32:52;;;;;;;16.38;13.05;;;20.20;99.90;;;;;;5034659;28;20171;-50
2022/09/11 11:35:40;;;;;;;16.67;14.90;;;20.10;99.90;;;;;;5034296;28;20239;-48
2022/09/11 11:38:23;;;;;;;16.63;13.55;;;20.30;99.90;;;;;;5034677;28;20171;-48
2022/09/11 11:41:06;;;;;;;14.85;11.98;;;20.40;99.90;;;;;;5034278;28;20172;-48
2022/09/11 11:43:37;;;;;;;13.82;11.77;;;20.60;99.90;;;;;;5034376;28;20172;-51
2022/09/11 11:46:09;;;;;;;11.55;10.10;;;20.80;99.90;;;;;;5034172;28;20167;-51
2022/09/11 11:49:01;;;;;;;11.43;10.02;;;20.80;99.90;;;;;;5034244;28;20171;-50
2022/09/11 11:51:32;;;;;;;11.20;8.80;;;21.10;99.90;;;;;;5033856;28;20167;-50
2022/09/11 11:54:09;;;;;;;9.05;7.82;;;20.90;99.90;;;;;;5033904;28;20199;-49
2022/09/11 11:56:34;;;;;;;12.32;8.93;;;20.90;99.90;;;;;;5034011;28;20171;-49
2022/09/11 11:59:32;;;;;;;13.13;10.77;;;20.60;99.90;;;;;;5033745;28;20264;-49
2022/09/11 12:02:07;;;;;;;15.40;11.38;;;21.00;99.90;;;;;;5021734;28;20175;-49
2022/09/11 12:04:56;;;;;;;10.95;9.80;;;20.70;99.90;;;;;;5033779;28;20170;-49
2022/09/11 12:07:31;;;;;;;11.05;9.70;;;20.70;99.90;;;;;;5034145;28;20163;-49
2022/09/11 12:09:58;;;;;;;8.43;7.53;;;21.00;99.90;;;;;;5033950;28;20170;-50
2022/09/11 12:12:42;;;;;;;10.95;8.35;;;21.10;99.90;;;;;;5033516;28;20168;-49
2022/09/11 12:15:17;;;;;;;10.40;8.40;;;21.30;99.90;;;;;;5033447;28;20218;-49
2022/09/11 12:17:42;;;;;;;9.57;8.68;;;21.60;99.90;;;;;;5033605;28;20190;-48
2022/09/11 12:20:30;;;;;;;9.77;8.70;;;21.80;99.90;;;;;;5033537;28;20171;-49
2022/09/11 12:22:57;;;;;;;10.13;9.13;;;21.80;99.90;;;;;;5033519;28;20221;-49
2022/09/11 12:25:28;;;;;;;10.38;9.27;;;22.00;99.90;;;;;;5034166;28;20214;-50
2022/09/11 12:28:23;;;;;;;12.20;9.93;;;21.70;99.90;;;;;;5033927;28;20171;-49
2022/09/11 12:31:07;;;;;;;16.02;10.70;;;21.80;99.90;;;;;;5034374;28;20500;-49
2022/09/11 12:33:46;;;;;;;10.65;9.55;;;21.90;99.90;;;;;;5033437;28;20276;-49
2022/09/11 12:36:41;;;;;;;11.13;9.77;;;22.20;99.90;;;;;;5033631;28;20195;-49
2022/09/11 12:39:13;;;;;;;13.45;10.10;;;22.30;99.90;;;;;;5031427;28;20662;-49
2022/09/11 12:41:39;;;;;;;10.10;9.13;;;22.50;99.90;;;;;;5033151;28;20684;-50
2022/09/11 12:44:47;;;;;;;10.23;8.23;;;22.60;99.90;;;;;;5033210;28;20171;-49
2022/09/11 12:47:35;;;;;;;12.85;8.63;;;22.50;99.90;;;;;;5031805;28;20566;-49
2022/09/11 12:50:04;;;;;;;9.48;7.47;;;22.00;99.90;;;;;;5033067;28;20174;-49
2022/09/11 12:52:36;;;;;;;8.15;7.35;;;21.70;99.90;;;;;;5033110;28;20172;-48